sensor_id;sensor_type;location;lat;lon;timestamp;P1;durP1;ratioP1;P2;durP2;ratioP2
53052;SDS011;38934;52.690;6.184;2023-03-01T00:01:58;29.15;;;18.45;;
53052;SDS011;38934;52.690;6.184;2023-03-01T00:04:24;29.45;;;18.20;;
53052;SDS011;38934;52.690;6.184;2023-03-01T00:06:50;26.60;;;17.48;;
53052;SDS011;38934;52.690;6.184;2023-03-01T00:09:16;29.15;;;18.02;;
53052;SDS011;38934;52.690;6.184;2023-03-01T00:11:43;28.45;;;17.00;;
53052;SDS011;38934;52.690;6.184;2023-03-01T00:14:09;29.98;;;18.85;;
53052;SDS011;38934;52.690;6.184;2023-03-01T00:16:39;26.33;;;16.95;;
53052;SDS011;38934;52.690;6.184;2023-03-01T00:19:05;30.45;;;18.33;;
53052;SDS011;38934;52.690;6.184;2023-03-01T00:21:32;28.40;;;17.25;;
53052;SDS011;38934;52.690;6.184;2023-03-01T00:24:00;29.23;;;17.38;;
53052;SDS011;38934;52.690;6.184;2023-03-01T00:26:26;27.88;;;16.65;;
53052;SDS011;38934;52.690;6.184;2023-03-01T00:28:52;27.48;;;16.75;;
53052;SDS011;38934;52.690;6.184;2023-03-01T00:31:21;26.17;;;17.20;;
53052;SDS011;38934;52.690;6.184;2023-03-01T00:33:48;27.02;;;17.33;;
53052;SDS011;38934;52.690;6.184;2023-03-01T00:36:14;28.65;;;18.25;;
53052;SDS011;38934;52.690;6.184;2023-03-01T00:38:42;30.50;;;18.17;;
53052;SDS011;38934;52.690;6.184;2023-03-01T00:41:09;28.42;;;17.60;;
53052;SDS011;38934;52.690;6.184;2023-03-01T00:43:36;26.77;;;17.02;;
53052;SDS011;38934;52.690;6.184;2023-03-01T00:46:02;30.83;;;18.95;;
53052;SDS011;38934;52.690;6.184;2023-03-01T00:48:29;30.98;;;18.42;;
53052;SDS011;38934;52.690;6.184;2023-03-01T00:50:55;32.03;;;19.95;;
53052;SDS011;38934;52.690;6.184;2023-03-01T00:53:21;30.13;;;18.00;;
53052;SDS011;38934;52.690;6.184;2023-03-01T00:55:47;30.08;;;18.08;;
53052;SDS011;38934;52.690;6.184;2023-03-01T00:58:13;32.22;;;18.15;;
53052;SDS011;38934;52.690;6.184;2023-03-01T01:00:39;33.45;;;19.48;;
53052;SDS011;38934;52.690;6.184;2023-03-01T01:03:05;33.65;;;19.05;;
53052;SDS011;38934;52.690;6.184;2023-03-01T01:05:33;31.23;;;19.05;;
53052;SDS011;38934;52.690;6.184;2023-03-01T01:07:59;32.50;;;19.83;;
53052;SDS011;38934;52.690;6.184;2023-03-01T01:10:25;33.30;;;19.20;;
53052;SDS011;38934;52.690;6.184;2023-03-01T01:12:51;34.97;;;19.58;;
53052;SDS011;38934;52.690;6.184;2023-03-01T01:15:17;32.05;;;18.83;;
53052;SDS011;38934;52.690;6.184;2023-03-01T01:17:43;29.65;;;18.33;;
53052;SDS011;38934;52.690;6.184;2023-03-01T01:20:10;30.48;;;19.40;;
53052;SDS011;38934;52.690;6.184;2023-03-01T01:22:36;31.45;;;18.48;;
53052;SDS011;38934;52.690;6.184;2023-03-01T01:25:02;33.42;;;19.30;;
53052;SDS011;38934;52.690;6.184;2023-03-01T01:27:29;33.80;;;18.88;;
53052;SDS011;38934;52.690;6.184;2023-03-01T01:29:55;31.55;;;19.58;;
53052;SDS011;38934;52.690;6.184;2023-03-01T01:32:21;35.40;;;19.95;;
53052;SDS011;38934;52.690;6.184;2023-03-01T01:34:47;33.30;;;19.42;;
53052;SDS011;38934;52.690;6.184;2023-03-01T01:37:13;34.17;;;19.90;;
53052;SDS011;38934;52.690;6.184;2023-03-01T01:39:39;33.53;;;19.73;;
53052;SDS011;38934;52.690;6.184;2023-03-01T01:42:05;33.15;;;19.73;;
53052;SDS011;38934;52.690;6.184;2023-03-01T01:44:32;34.85;;;20.20;;
53052;SDS011;38934;52.690;6.184;2023-03-01T01:47:05;32.92;;;20.15;;
53052;SDS011;38934;52.690;6.184;2023-03-01T01:49:35;31.58;;;17.70;;
53052;SDS011;38934;52.690;6.184;2023-03-01T01:54:35;37.22;;;19.75;;
53052;SDS011;38934;52.690;6.184;2023-03-01T01:57:06;36.53;;;20.20;;
53052;SDS011;38934;52.690;6.184;2023-03-01T01:59:33;36.67;;;20.60;;
53052;SDS011;38934;52.690;6.184;2023-03-01T02:02:00;32.20;;;20.33;;
53052;SDS011;38934;52.690;6.184;2023-03-01T02:04:27;36.28;;;20.58;;
53052;SDS011;38934;52.690;6.184;2023-03-01T02:06:56;35.53;;;19.42;;
53052;SDS011;38934;52.690;6.184;2023-03-01T02:09:23;36.13;;;20.33;;
53052;SDS011;38934;52.690;6.184;2023-03-01T02:11:50;34.72;;;20.98;;
53052;SDS011;38934;52.690;6.184;2023-03-01T02:14:16;32.72;;;19.92;;
53052;SDS011;38934;52.690;6.184;2023-03-01T02:16:43;33.65;;;20.00;;
53052;SDS011;38934;52.690;6.184;2023-03-01T02:19:10;38.95;;;21.05;;
53052;SDS011;38934;52.690;6.184;2023-03-01T02:21:45;35.03;;;20.75;;
53052;SDS011;38934;52.690;6.184;2023-03-01T02:24:20;39.72;;;20.05;;
53052;SDS011;38934;52.690;6.184;2023-03-01T02:26:51;34.22;;;20.60;;
53052;SDS011;38934;52.690;6.184;2023-03-01T02:29:18;35.13;;;20.52;;
53052;SDS011;38934;52.690;6.184;2023-03-01T02:31:44;37.00;;;20.33;;
53052;SDS011;38934;52.690;6.184;2023-03-01T02:34:12;34.60;;;20.13;;
53052;SDS011;38934;52.690;6.184;2023-03-01T02:36:40;62.92;;;22.38;;
53052;SDS011;38934;52.690;6.184;2023-03-01T02:39:07;40.65;;;21.30;;
53052;SDS011;38934;52.690;6.184;2023-03-01T02:41:39;42.30;;;21.98;;
53052;SDS011;38934;52.690;6.184;2023-03-01T02:44:06;44.53;;;20.92;;
53052;SDS011;38934;52.690;6.184;2023-03-01T02:46:33;56.40;;;21.92;;
53052;SDS011;38934;52.690;6.184;2023-03-01T02:48:59;65.75;;;24.15;;
53052;SDS011;38934;52.690;6.184;2023-03-01T02:53:56;99.72;;;24.45;;
53052;SDS011;38934;52.690;6.184;2023-03-01T02:56:27;81.30;;;25.63;;
53052;SDS011;38934;52.690;6.184;2023-03-01T02:58:54;69.38;;;23.73;;
53052;SDS011;38934;52.690;6.184;2023-03-01T03:01:25;64.82;;;23.20;;
53052;SDS011;38934;52.690;6.184;2023-03-01T03:04:01;65.68;;;24.45;;
53052;SDS011;38934;52.690;6.184;2023-03-01T03:06:27;42.63;;;22.13;;
53052;SDS011;38934;52.690;6.184;2023-03-01T03:08:54;94.90;;;24.00;;
53052;SDS011;38934;52.690;6.184;2023-03-01T03:11:20;41.78;;;20.48;;
53052;SDS011;38934;52.690;6.184;2023-03-01T03:13:46;37.45;;;21.00;;
53052;SDS011;38934;52.690;6.184;2023-03-01T03:16:13;46.58;;;21.10;;
53052;SDS011;38934;52.690;6.184;2023-03-01T03:18:39;45.80;;;20.27;;
53052;SDS011;38934;52.690;6.184;2023-03-01T03:21:08;40.28;;;20.80;;
53052;SDS011;38934;52.690;6.184;2023-03-01T03:23:37;36.53;;;20.30;;
53052;SDS011;38934;52.690;6.184;2023-03-01T03:26:04;32.95;;;19.55;;
53052;SDS011;38934;52.690;6.184;2023-03-01T03:28:31;35.17;;;19.85;;
53052;SDS011;38934;52.690;6.184;2023-03-01T03:30:57;33.45;;;19.05;;
53052;SDS011;38934;52.690;6.184;2023-03-01T03:33:23;38.35;;;19.42;;
53052;SDS011;38934;52.690;6.184;2023-03-01T03:35:49;36.15;;;19.75;;
53052;SDS011;38934;52.690;6.184;2023-03-01T03:38:16;38.53;;;21.30;;
53052;SDS011;38934;52.690;6.184;2023-03-01T03:40:48;35.22;;;19.95;;
53052;SDS011;38934;52.690;6.184;2023-03-01T03:43:17;34.75;;;20.63;;
53052;SDS011;38934;52.690;6.184;2023-03-01T03:45:44;33.88;;;19.90;;
53052;SDS011;38934;52.690;6.184;2023-03-01T03:48:10;37.40;;;20.45;;
53052;SDS011;38934;52.690;6.184;2023-03-01T03:50:37;34.45;;;20.08;;
53052;SDS011;38934;52.690;6.184;2023-03-01T03:53:05;34.85;;;19.65;;
53052;SDS011;38934;52.690;6.184;2023-03-01T03:55:31;49.47;;;20.63;;
53052;SDS011;38934;52.690;6.184;2023-03-01T03:57:59;59.63;;;19.83;;
53052;SDS011;38934;52.690;6.184;2023-03-01T04:00:31;41.92;;;19.50;;
53052;SDS011;38934;52.690;6.184;2023-03-01T04:02:57;61.28;;;19.70;;
53052;SDS011;38934;52.690;6.184;2023-03-01T04:05:23;46.38;;;17.67;;
53052;SDS011;38934;52.690;6.184;2023-03-01T04:07:50;38.17;;;18.55;;
53052;SDS011;38934;52.690;6.184;2023-03-01T04:10:26;32.92;;;17.58;;
53052;SDS011;38934;52.690;6.184;2023-03-01T04:12:52;33.28;;;19.98;;
53052;SDS011;38934;52.690;6.184;2023-03-01T04:15:18;42.38;;;19.13;;
53052;SDS011;38934;52.690;6.184;2023-03-01T04:17:45;38.22;;;18.25;;
53052;SDS011;38934;52.690;6.184;2023-03-01T04:20:18;34.33;;;18.15;;
53052;SDS011;38934;52.690;6.184;2023-03-01T04:22:56;37.20;;;18.38;;
53052;SDS011;38934;52.690;6.184;2023-03-01T04:25:22;37.38;;;18.33;;
53052;SDS011;38934;52.690;6.184;2023-03-01T04:27:48;32.30;;;18.83;;
53052;SDS011;38934;52.690;6.184;2023-03-01T04:30:14;36.60;;;19.98;;
53052;SDS011;38934;52.690;6.184;2023-03-01T04:32:40;36.63;;;18.02;;
53052;SDS011;38934;52.690;6.184;2023-03-01T04:35:07;34.15;;;18.98;;
53052;SDS011;38934;52.690;6.184;2023-03-01T04:37:33;35.08;;;18.60;;
53052;SDS011;38934;52.690;6.184;2023-03-01T04:39:59;33.75;;;19.58;;
53052;SDS011;38934;52.690;6.184;2023-03-01T04:42:25;38.15;;;18.70;;
53052;SDS011;38934;52.690;6.184;2023-03-01T04:44:51;31.20;;;18.77;;
53052;SDS011;38934;52.690;6.184;2023-03-01T04:47:17;35.58;;;18.35;;
53052;SDS011;38934;52.690;6.184;2023-03-01T04:49:43;31.35;;;18.95;;
53052;SDS011;38934;52.690;6.184;2023-03-01T04:52:09;30.65;;;18.25;;
53052;SDS011;38934;52.690;6.184;2023-03-01T04:54:35;28.08;;;17.83;;
53052;SDS011;38934;52.690;6.184;2023-03-01T04:57:02;30.65;;;17.98;;
53052;SDS011;38934;52.690;6.184;2023-03-01T04:59:28;32.95;;;18.60;;
53052;SDS011;38934;52.690;6.184;2023-03-01T05:01:55;32.90;;;18.35;;
53052;SDS011;38934;52.690;6.184;2023-03-01T05:04:21;32.42;;;19.90;;
53052;SDS011;38934;52.690;6.184;2023-03-01T05:06:48;34.13;;;19.40;;
53052;SDS011;38934;52.690;6.184;2023-03-01T05:09:14;33.08;;;19.50;;
53052;SDS011;38934;52.690;6.184;2023-03-01T05:11:40;31.42;;;18.83;;
53052;SDS011;38934;52.690;6.184;2023-03-01T05:14:06;32.75;;;18.23;;
53052;SDS011;38934;52.690;6.184;2023-03-01T05:16:32;35.00;;;19.77;;
53052;SDS011;38934;52.690;6.184;2023-03-01T05:18:58;30.27;;;18.45;;
53052;SDS011;38934;52.690;6.184;2023-03-01T05:21:25;35.50;;;19.23;;
53052;SDS011;38934;52.690;6.184;2023-03-01T05:23:51;27.50;;;17.60;;
53052;SDS011;38934;52.690;6.184;2023-03-01T05:26:18;33.13;;;18.60;;
53052;SDS011;38934;52.690;6.184;2023-03-01T05:28:46;31.63;;;18.42;;
53052;SDS011;38934;52.690;6.184;2023-03-01T05:31:13;31.85;;;18.80;;
53052;SDS011;38934;52.690;6.184;2023-03-01T05:33:40;33.03;;;18.20;;
53052;SDS011;38934;52.690;6.184;2023-03-01T05:36:06;29.35;;;17.10;;
53052;SDS011;38934;52.690;6.184;2023-03-01T05:38:34;27.27;;;17.02;;
53052;SDS011;38934;52.690;6.184;2023-03-01T05:41:00;30.30;;;17.05;;
53052;SDS011;38934;52.690;6.184;2023-03-01T05:43:29;27.45;;;17.38;;
53052;SDS011;38934;52.690;6.184;2023-03-01T05:45:58;29.75;;;17.55;;
53052;SDS011;38934;52.690;6.184;2023-03-01T05:48:24;28.25;;;17.60;;
53052;SDS011;38934;52.690;6.184;2023-03-01T05:50:51;29.45;;;17.10;;
53052;SDS011;38934;52.690;6.184;2023-03-01T05:53:18;29.40;;;18.63;;
53052;SDS011;38934;52.690;6.184;2023-03-01T05:55:46;27.80;;;18.27;;
53052;SDS011;38934;52.690;6.184;2023-03-01T05:58:16;29.88;;;18.27;;
53052;SDS011;38934;52.690;6.184;2023-03-01T06:00:44;28.55;;;16.98;;
53052;SDS011;38934;52.690;6.184;2023-03-01T06:03:11;32.05;;;18.45;;
53052;SDS011;38934;52.690;6.184;2023-03-01T06:05:37;27.33;;;17.00;;
53052;SDS011;38934;52.690;6.184;2023-03-01T06:08:04;32.22;;;18.88;;
53052;SDS011;38934;52.690;6.184;2023-03-01T06:10:30;29.92;;;17.38;;
53052;SDS011;38934;52.690;6.184;2023-03-01T06:12:56;29.35;;;17.77;;
53052;SDS011;38934;52.690;6.184;2023-03-01T06:15:23;30.35;;;19.23;;
53052;SDS011;38934;52.690;6.184;2023-03-01T06:17:49;29.05;;;16.98;;
53052;SDS011;38934;52.690;6.184;2023-03-01T06:20:16;29.23;;;17.40;;
53052;SDS011;38934;52.690;6.184;2023-03-01T06:22:43;26.92;;;16.80;;
53052;SDS011;38934;52.690;6.184;2023-03-01T06:25:09;29.55;;;16.98;;
53052;SDS011;38934;52.690;6.184;2023-03-01T06:27:35;29.17;;;17.73;;
53052;SDS011;38934;52.690;6.184;2023-03-01T06:30:02;31.45;;;18.25;;
53052;SDS011;38934;52.690;6.184;2023-03-01T06:32:28;29.52;;;18.60;;
53052;SDS011;38934;52.690;6.184;2023-03-01T06:34:55;30.50;;;17.58;;
53052;SDS011;38934;52.690;6.184;2023-03-01T06:37:21;28.52;;;16.90;;
53052;SDS011;38934;52.690;6.184;2023-03-01T06:39:47;29.90;;;18.90;;
53052;SDS011;38934;52.690;6.184;2023-03-01T06:42:14;29.15;;;17.30;;
53052;SDS011;38934;52.690;6.184;2023-03-01T06:44:40;28.98;;;19.10;;
53052;SDS011;38934;52.690;6.184;2023-03-01T06:47:06;28.38;;;16.98;;
53052;SDS011;38934;52.690;6.184;2023-03-01T06:49:32;29.00;;;18.25;;
53052;SDS011;38934;52.690;6.184;2023-03-01T06:51:58;29.52;;;17.63;;
53052;SDS011;38934;52.690;6.184;2023-03-01T06:54:24;28.85;;;18.83;;
53052;SDS011;38934;52.690;6.184;2023-03-01T06:56:50;30.77;;;18.50;;
53052;SDS011;38934;52.690;6.184;2023-03-01T06:59:16;32.42;;;19.48;;
53052;SDS011;38934;52.690;6.184;2023-03-01T07:01:42;29.10;;;18.17;;
53052;SDS011;38934;52.690;6.184;2023-03-01T07:04:09;32.35;;;19.25;;
53052;SDS011;38934;52.690;6.184;2023-03-01T07:06:35;30.00;;;19.52;;
53052;SDS011;38934;52.690;6.184;2023-03-01T07:09:01;33.45;;;20.48;;
53052;SDS011;38934;52.690;6.184;2023-03-01T07:11:27;32.20;;;18.83;;
53052;SDS011;38934;52.690;6.184;2023-03-01T07:13:53;32.72;;;19.63;;
53052;SDS011;38934;52.690;6.184;2023-03-01T07:16:20;33.65;;;19.20;;
53052;SDS011;38934;52.690;6.184;2023-03-01T07:18:46;31.83;;;19.63;;
53052;SDS011;38934;52.690;6.184;2023-03-01T07:21:13;31.83;;;18.98;;
53052;SDS011;38934;52.690;6.184;2023-03-01T07:23:39;37.22;;;21.70;;
53052;SDS011;38934;52.690;6.184;2023-03-01T07:26:06;38.85;;;23.00;;
53052;SDS011;38934;52.690;6.184;2023-03-01T07:28:32;33.63;;;21.00;;
53052;SDS011;38934;52.690;6.184;2023-03-01T07:31:03;40.78;;;25.27;;
53052;SDS011;38934;52.690;6.184;2023-03-01T07:33:29;37.63;;;22.27;;
53052;SDS011;38934;52.690;6.184;2023-03-01T07:35:59;41.03;;;23.15;;
53052;SDS011;38934;52.690;6.184;2023-03-01T07:38:25;36.85;;;21.83;;
53052;SDS011;38934;52.690;6.184;2023-03-01T07:40:52;35.53;;;21.30;;
53052;SDS011;38934;52.690;6.184;2023-03-01T07:43:18;40.28;;;22.50;;
53052;SDS011;38934;52.690;6.184;2023-03-01T07:45:44;36.88;;;21.42;;
53052;SDS011;38934;52.690;6.184;2023-03-01T07:48:10;39.60;;;23.33;;
53052;SDS011;38934;52.690;6.184;2023-03-01T07:50:36;41.55;;;23.38;;
53052;SDS011;38934;52.690;6.184;2023-03-01T07:53:02;40.90;;;24.08;;
53052;SDS011;38934;52.690;6.184;2023-03-01T07:55:28;44.45;;;25.70;;
53052;SDS011;38934;52.690;6.184;2023-03-01T07:57:54;48.20;;;24.67;;
53052;SDS011;38934;52.690;6.184;2023-03-01T08:00:20;43.00;;;23.42;;
53052;SDS011;38934;52.690;6.184;2023-03-01T08:02:46;48.17;;;25.92;;
53052;SDS011;38934;52.690;6.184;2023-03-01T08:05:12;52.58;;;27.33;;
53052;SDS011;38934;52.690;6.184;2023-03-01T08:07:39;51.13;;;27.15;;
53052;SDS011;38934;52.690;6.184;2023-03-01T08:10:05;57.17;;;29.02;;
53052;SDS011;38934;52.690;6.184;2023-03-01T08:12:31;64.22;;;31.13;;
53052;SDS011;38934;52.690;6.184;2023-03-01T08:14:57;72.85;;;32.50;;
53052;SDS011;38934;52.690;6.184;2023-03-01T08:17:23;60.47;;;29.95;;
53052;SDS011;38934;52.690;6.184;2023-03-01T08:19:49;56.15;;;28.92;;
53052;SDS011;38934;52.690;6.184;2023-03-01T08:22:15;63.97;;;31.42;;
53052;SDS011;38934;52.690;6.184;2023-03-01T08:24:41;61.88;;;31.67;;
53052;SDS011;38934;52.690;6.184;2023-03-01T08:27:07;62.22;;;30.33;;
53052;SDS011;38934;52.690;6.184;2023-03-01T08:29:33;62.25;;;31.65;;
53052;SDS011;38934;52.690;6.184;2023-03-01T08:32:00;69.00;;;33.75;;
53052;SDS011;38934;52.690;6.184;2023-03-01T08:34:26;74.15;;;34.78;;
53052;SDS011;38934;52.690;6.184;2023-03-01T08:36:52;70.05;;;33.58;;
53052;SDS011;38934;52.690;6.184;2023-03-01T08:39:19;69.57;;;34.50;;
53052;SDS011;38934;52.690;6.184;2023-03-01T08:41:46;67.22;;;33.15;;
53052;SDS011;38934;52.690;6.184;2023-03-01T08:44:12;69.00;;;34.25;;
53052;SDS011;38934;52.690;6.184;2023-03-01T08:46:39;61.33;;;32.83;;
53052;SDS011;38934;52.690;6.184;2023-03-01T08:49:12;64.85;;;33.65;;
53052;SDS011;38934;52.690;6.184;2023-03-01T08:51:39;66.95;;;31.95;;
53052;SDS011;38934;52.690;6.184;2023-03-01T08:54:06;56.53;;;30.00;;
53052;SDS011;38934;52.690;6.184;2023-03-01T08:56:32;60.85;;;31.08;;
53052;SDS011;38934;52.690;6.184;2023-03-01T08:58:59;57.65;;;30.95;;
53052;SDS011;38934;52.690;6.184;2023-03-01T09:01:25;53.28;;;28.25;;
53052;SDS011;38934;52.690;6.184;2023-03-01T09:03:51;51.20;;;27.83;;
53052;SDS011;38934;52.690;6.184;2023-03-01T09:06:17;45.05;;;26.63;;
53052;SDS011;38934;52.690;6.184;2023-03-01T09:08:44;43.92;;;26.42;;
53052;SDS011;38934;52.690;6.184;2023-03-01T09:11:12;46.92;;;25.75;;
53052;SDS011;38934;52.690;6.184;2023-03-01T09:13:38;43.55;;;24.25;;
53052;SDS011;38934;52.690;6.184;2023-03-01T09:16:05;40.22;;;23.80;;
53052;SDS011;38934;52.690;6.184;2023-03-01T09:18:32;38.70;;;23.27;;
53052;SDS011;38934;52.690;6.184;2023-03-01T09:21:02;42.28;;;23.35;;
53052;SDS011;38934;52.690;6.184;2023-03-01T09:23:42;37.33;;;21.58;;
53052;SDS011;38934;52.690;6.184;2023-03-01T09:26:10;35.78;;;21.38;;
53052;SDS011;38934;52.690;6.184;2023-03-01T09:28:36;27.85;;;17.45;;
53052;SDS011;38934;52.690;6.184;2023-03-01T09:31:03;30.38;;;19.08;;
53052;SDS011;38934;52.690;6.184;2023-03-01T09:33:29;26.98;;;16.15;;
53052;SDS011;38934;52.690;6.184;2023-03-01T09:35:59;25.17;;;16.08;;
53052;SDS011;38934;52.690;6.184;2023-03-01T09:38:25;21.23;;;13.75;;
53052;SDS011;38934;52.690;6.184;2023-03-01T09:40:51;18.48;;;12.82;;
53052;SDS011;38934;52.690;6.184;2023-03-01T09:45:56;15.55;;;10.63;;
53052;SDS011;38934;52.690;6.184;2023-03-01T09:48:25;17.05;;;10.18;;
53052;SDS011;38934;52.690;6.184;2023-03-01T09:50:52;16.85;;;10.48;;
53052;SDS011;38934;52.690;6.184;2023-03-01T09:53:22;17.80;;;9.85;;
53052;SDS011;38934;52.690;6.184;2023-03-01T09:55:51;13.32;;;9.05;;
53052;SDS011;38934;52.690;6.184;2023-03-01T10:00:53;15.27;;;9.13;;
53052;SDS011;38934;52.690;6.184;2023-03-01T10:03:26;13.65;;;9.55;;
53052;SDS011;38934;52.690;6.184;2023-03-01T10:06:00;12.85;;;8.45;;
53052;SDS011;38934;52.690;6.184;2023-03-01T10:08:40;11.35;;;8.20;;
53052;SDS011;38934;52.690;6.184;2023-03-01T10:11:19;10.50;;;7.50;;
53052;SDS011;38934;52.690;6.184;2023-03-01T10:13:48;13.02;;;7.68;;
53052;SDS011;38934;52.690;6.184;2023-03-01T10:16:22;11.95;;;7.10;;
53052;SDS011;38934;52.690;6.184;2023-03-01T10:18:55;11.60;;;7.70;;
53052;SDS011;38934;52.690;6.184;2023-03-01T10:21:22;10.68;;;7.25;;
53052;SDS011;38934;52.690;6.184;2023-03-01T10:23:51;10.50;;;6.95;;
53052;SDS011;38934;52.690;6.184;2023-03-01T10:29:13;12.10;;;6.95;;
53052;SDS011;38934;52.690;6.184;2023-03-01T10:31:41;12.70;;;6.78;;
53052;SDS011;38934;52.690;6.184;2023-03-01T10:34:22;9.63;;;6.78;;
53052;SDS011;38934;52.690;6.184;2023-03-01T10:36:49;11.68;;;7.03;;
53052;SDS011;38934;52.690;6.184;2023-03-01T10:39:17;9.95;;;7.30;;
53052;SDS011;38934;52.690;6.184;2023-03-01T10:49:51;9.57;;;6.47;;
53052;SDS011;38934;52.690;6.184;2023-03-01T10:52:19;9.15;;;6.32;;
53052;SDS011;38934;52.690;6.184;2023-03-01T10:54:53;9.27;;;6.22;;
53052;SDS011;38934;52.690;6.184;2023-03-01T11:00:24;8.10;;;6.22;;
53052;SDS011;38934;52.690;6.184;2023-03-01T11:02:51;8.85;;;5.75;;
53052;SDS011;38934;52.690;6.184;2023-03-01T11:05:27;8.57;;;6.05;;
53052;SDS011;38934;52.690;6.184;2023-03-01T11:07:58;8.45;;;5.93;;
53052;SDS011;38934;52.690;6.184;2023-03-01T11:12:51;9.13;;;5.75;;
53052;SDS011;38934;52.690;6.184;2023-03-01T11:15:22;9.63;;;5.80;;
53052;SDS011;38934;52.690;6.184;2023-03-01T11:17:49;23.25;;;6.25;;
53052;SDS011;38934;52.690;6.184;2023-03-01T11:20:18;7.03;;;5.18;;
53052;SDS011;38934;52.690;6.184;2023-03-01T11:22:50;9.15;;;5.63;;
53052;SDS011;38934;52.690;6.184;2023-03-01T11:25:20;8.60;;;5.30;;
53052;SDS011;38934;52.690;6.184;2023-03-01T11:27:54;8.50;;;6.07;;
53052;SDS011;38934;52.690;6.184;2023-03-01T11:30:32;7.22;;;5.10;;
53052;SDS011;38934;52.690;6.184;2023-03-01T11:35:42;8.13;;;5.45;;
53052;SDS011;38934;52.690;6.184;2023-03-01T11:38:21;9.90;;;6.07;;
53052;SDS011;38934;52.690;6.184;2023-03-01T11:40:59;9.23;;;6.00;;
53052;SDS011;38934;52.690;6.184;2023-03-01T11:43:34;8.48;;;5.60;;
53052;SDS011;38934;52.690;6.184;2023-03-01T11:48:51;9.02;;;6.25;;
53052;SDS011;38934;52.690;6.184;2023-03-01T11:51:21;7.55;;;5.57;;
53052;SDS011;38934;52.690;6.184;2023-03-01T11:54:03;11.10;;;6.78;;
53052;SDS011;38934;52.690;6.184;2023-03-01T11:56:46;9.27;;;6.70;;
53052;SDS011;38934;52.690;6.184;2023-03-01T12:26:47;11.40;;;6.43;;
53052;SDS011;38934;52.690;6.184;2023-03-01T12:29:34;9.60;;;6.75;;
53052;SDS011;38934;52.690;6.184;2023-03-01T12:32:37;10.43;;;7.15;;
53052;SDS011;38934;52.690;6.184;2023-03-01T12:38:19;10.93;;;6.55;;
53052;SDS011;38934;52.690;6.184;2023-03-01T12:47:12;8.55;;;5.80;;
53052;SDS011;38934;52.690;6.184;2023-03-01T12:49:40;11.60;;;6.50;;
53052;SDS011;38934;52.690;6.184;2023-03-01T12:52:16;8.85;;;5.93;;
53052;SDS011;38934;52.690;6.184;2023-03-01T12:54:58;9.07;;;6.05;;
53052;SDS011;38934;52.690;6.184;2023-03-01T12:57:31;8.32;;;5.68;;
53052;SDS011;38934;52.690;6.184;2023-03-01T13:03:09;8.90;;;5.93;;
53052;SDS011;38934;52.690;6.184;2023-03-01T13:11:05;11.15;;;6.22;;
53052;SDS011;38934;52.690;6.184;2023-03-01T13:13:35;9.85;;;5.78;;
53052;SDS011;38934;52.690;6.184;2023-03-01T13:16:46;8.30;;;5.75;;
53052;SDS011;38934;52.690;6.184;2023-03-01T13:18:47;9.00;;;6.03;;
53052;SDS011;38934;52.690;6.184;2023-03-01T13:21:13;10.10;;;6.18;;
53052;SDS011;38934;52.690;6.184;2023-03-01T13:23:55;11.25;;;6.65;;
53052;SDS011;38934;52.690;6.184;2023-03-01T13:26:21;10.98;;;6.88;;
53052;SDS011;38934;52.690;6.184;2023-03-01T13:28:51;8.98;;;6.57;;
53052;SDS011;38934;52.690;6.184;2023-03-01T13:38:55;11.80;;;6.68;;
53052;SDS011;38934;52.690;6.184;2023-03-01T13:46:45;9.05;;;6.45;;
53052;SDS011;38934;52.690;6.184;2023-03-01T13:49:14;11.13;;;6.60;;
53052;SDS011;38934;52.690;6.184;2023-03-01T13:51:42;11.20;;;6.82;;
53052;SDS011;38934;52.690;6.184;2023-03-01T13:54:12;10.02;;;6.38;;
53052;SDS011;38934;52.690;6.184;2023-03-01T13:56:39;10.85;;;6.70;;
53052;SDS011;38934;52.690;6.184;2023-03-01T13:59:06;9.85;;;7.03;;
53052;SDS011;38934;52.690;6.184;2023-03-01T14:01:44;9.88;;;6.82;;
53052;SDS011;38934;52.690;6.184;2023-03-01T14:04:31;8.55;;;5.97;;
53052;SDS011;38934;52.690;6.184;2023-03-01T14:09:36;10.23;;;6.53;;
53052;SDS011;38934;52.690;6.184;2023-03-01T14:12:14;10.73;;;7.18;;
53052;SDS011;38934;52.690;6.184;2023-03-01T14:20:23;12.88;;;6.88;;
53052;SDS011;38934;52.690;6.184;2023-03-01T14:22:57;11.35;;;6.70;;
53052;SDS011;38934;52.690;6.184;2023-03-01T14:25:30;10.63;;;6.95;;
53052;SDS011;38934;52.690;6.184;2023-03-01T14:30:40;10.23;;;6.70;;
53052;SDS011;38934;52.690;6.184;2023-03-01T14:33:21;12.27;;;7.63;;
53052;SDS011;38934;52.690;6.184;2023-03-01T14:35:59;11.35;;;7.10;;
53052;SDS011;38934;52.690;6.184;2023-03-01T14:41:25;11.00;;;7.13;;
53052;SDS011;38934;52.690;6.184;2023-03-01T14:43:55;9.27;;;6.88;;
53052;SDS011;38934;52.690;6.184;2023-03-01T14:49:09;9.75;;;7.05;;
53052;SDS011;38934;52.690;6.184;2023-03-01T14:51:52;10.48;;;7.25;;
53052;SDS011;38934;52.690;6.184;2023-03-01T14:54:28;10.80;;;6.95;;
53052;SDS011;38934;52.690;6.184;2023-03-01T14:57:05;11.73;;;7.35;;
53052;SDS011;38934;52.690;6.184;2023-03-01T14:59:38;11.05;;;7.20;;
53052;SDS011;38934;52.690;6.184;2023-03-01T15:02:13;10.63;;;7.20;;
53052;SDS011;38934;52.690;6.184;2023-03-01T15:04:42;10.85;;;7.03;;
53052;SDS011;38934;52.690;6.184;2023-03-01T15:07:11;12.35;;;7.68;;
53052;SDS011;38934;52.690;6.184;2023-03-01T15:09:39;11.18;;;7.43;;
53052;SDS011;38934;52.690;6.184;2023-03-01T15:14:52;10.88;;;6.82;;
53052;SDS011;38934;52.690;6.184;2023-03-01T15:17:37;12.18;;;7.05;;
53052;SDS011;38934;52.690;6.184;2023-03-01T15:20:05;10.75;;;6.78;;
53052;SDS011;38934;52.690;6.184;2023-03-01T15:22:43;12.68;;;8.15;;
53052;SDS011;38934;52.690;6.184;2023-03-01T15:25:19;12.50;;;7.68;;
53052;SDS011;38934;52.690;6.184;2023-03-01T15:27:48;13.77;;;7.57;;
53052;SDS011;38934;52.690;6.184;2023-03-01T15:30:23;13.95;;;8.50;;
53052;SDS011;38934;52.690;6.184;2023-03-01T15:35:46;12.10;;;7.65;;
53052;SDS011;38934;52.690;6.184;2023-03-01T15:38:28;12.35;;;7.53;;
53052;SDS011;38934;52.690;6.184;2023-03-01T15:40:54;12.60;;;8.65;;
53052;SDS011;38934;52.690;6.184;2023-03-01T15:43:41;20.20;;;8.40;;
53052;SDS011;38934;52.690;6.184;2023-03-01T15:46:23;11.80;;;8.00;;
53052;SDS011;38934;52.690;6.184;2023-03-01T15:48:58;12.23;;;8.10;;
53052;SDS011;38934;52.690;6.184;2023-03-01T15:51:31;14.50;;;8.55;;
53052;SDS011;38934;52.690;6.184;2023-03-01T15:54:02;13.30;;;8.18;;
53052;SDS011;38934;52.690;6.184;2023-03-01T15:56:38;13.05;;;8.63;;
53052;SDS011;38934;52.690;6.184;2023-03-01T15:59:03;13.45;;;9.50;;
53052;SDS011;38934;52.690;6.184;2023-03-01T16:01:29;12.18;;;8.52;;
53052;SDS011;38934;52.690;6.184;2023-03-01T16:03:55;13.32;;;8.52;;
53052;SDS011;38934;52.690;6.184;2023-03-01T16:06:23;13.70;;;8.07;;
53052;SDS011;38934;52.690;6.184;2023-03-01T16:08:49;12.68;;;7.85;;
53052;SDS011;38934;52.690;6.184;2023-03-01T16:11:18;11.63;;;8.13;;
53052;SDS011;38934;52.690;6.184;2023-03-01T16:13:45;15.07;;;8.30;;
53052;SDS011;38934;52.690;6.184;2023-03-01T16:16:11;12.77;;;7.95;;
53052;SDS011;38934;52.690;6.184;2023-03-01T16:18:41;12.43;;;8.30;;
53052;SDS011;38934;52.690;6.184;2023-03-01T16:21:11;12.40;;;8.15;;
53052;SDS011;38934;52.690;6.184;2023-03-01T16:23:45;12.57;;;8.07;;
53052;SDS011;38934;52.690;6.184;2023-03-01T16:26:11;11.95;;;8.23;;
53052;SDS011;38934;52.690;6.184;2023-03-01T16:28:38;12.48;;;8.40;;
53052;SDS011;38934;52.690;6.184;2023-03-01T16:31:04;14.18;;;8.57;;